createdAt,value
2019-02-17T00:02:25.599Z,12.40
2019-02-17T00:04:54.000Z,13.33
2019-02-17T00:07:22.446Z,14.07
2019-02-17T00:09:50.852Z,13.83
2019-02-17T00:12:19.253Z,13.33
2019-02-17T00:14:47.676Z,13.03
2019-02-17T00:17:16.062Z,14.33
2019-02-17T00:19:44.457Z,14.50
2019-02-17T00:22:12.889Z,13.90
2019-02-17T00:24:41.281Z,13.97
2019-02-17T00:27:09.676Z,13.47
2019-02-17T00:29:38.097Z,13.40
2019-02-17T00:32:06.501Z,12.77
2019-02-17T00:34:34.909Z,13.80
2019-02-17T00:37:03.328Z,13.97
2019-02-17T00:39:31.724Z,13.27
2019-02-17T00:42:00.144Z,13.83
2019-02-17T00:44:28.566Z,13.80
2019-02-17T00:46:56.957Z,14.47
2019-02-17T00:49:25.834Z,13.80
2019-02-17T00:51:54.260Z,13.63
2019-02-17T00:54:22.663Z,14.07
2019-02-17T00:56:51.062Z,14.07
2019-02-17T00:59:19.513Z,14.00
2019-02-17T01:01:48.292Z,14.20
2019-02-17T01:04:16.698Z,14.60
2019-02-17T01:06:45.121Z,13.43
2019-02-17T01:09:13.587Z,14.00
2019-02-17T01:11:41.996Z,14.37
2019-02-17T01:14:10.477Z,13.80
2019-02-17T01:16:38.877Z,14.33
2019-02-17T01:19:07.307Z,13.77
2019-02-17T01:21:35.703Z,14.17
2019-02-17T01:24:04.102Z,13.60
2019-02-17T01:26:32.669Z,13.97
2019-02-17T01:29:01.065Z,14.03
2019-02-17T01:31:29.463Z,13.90
2019-02-17T01:33:57.882Z,13.10
2019-02-17T01:36:26.282Z,15.03
2019-02-17T01:38:54.677Z,14.17
2019-02-17T01:41:23.101Z,14.63
2019-02-17T01:43:51.502Z,14.23
2019-02-17T01:46:19.905Z,13.70
2019-02-17T01:48:48.346Z,13.40
2019-02-17T01:51:16.746Z,14.70
2019-02-17T01:53:45.145Z,14.10
2019-02-17T01:56:13.560Z,13.77
2019-02-17T01:58:41.953Z,14.20
2019-02-17T02:01:10.424Z,14.00
2019-02-17T02:03:38.846Z,14.03
2019-02-17T02:06:07.249Z,15.43
2019-02-17T02:08:35.641Z,13.93
2019-02-17T02:11:04.077Z,14.10
2019-02-17T02:13:32.472Z,14.27
2019-02-17T02:16:00.861Z,13.93
2019-02-17T02:18:29.292Z,14.70
2019-02-17T02:20:57.692Z,15.20
2019-02-17T02:23:26.093Z,14.60
2019-02-17T02:25:54.508Z,14.07
2019-02-17T02:28:22.910Z,14.23
2019-02-17T02:30:51.309Z,13.97
2019-02-17T02:33:19.740Z,14.80
2019-02-17T02:35:48.142Z,14.27
2019-02-17T02:38:16.547Z,13.23
2019-02-17T02:40:44.965Z,14.17
2019-02-17T02:43:13.391Z,14.50
2019-02-17T02:45:41.879Z,14.37
2019-02-17T02:48:10.274Z,14.57
2019-02-17T02:50:38.701Z,13.80
2019-02-17T02:53:07.098Z,13.77
2019-02-17T02:55:35.509Z,14.40
2019-02-17T02:58:03.948Z,14.63
2019-02-17T03:00:32.351Z,13.80
2019-02-17T03:03:00.754Z,14.67
2019-02-17T03:05:29.189Z,13.83
2019-02-17T03:07:57.595Z,14.73
2019-02-17T03:10:26.300Z,14.73
2019-02-17T03:12:54.693Z,14.67
2019-02-17T03:15:23.095Z,14.70
2019-02-17T03:17:51.526Z,14.80
2019-02-17T03:20:19.944Z,14.07
2019-02-17T03:22:48.335Z,15.17
2019-02-17T03:25:16.768Z,14.73
2019-02-17T03:27:45.170Z,14.63
2019-02-17T03:30:13.596Z,15.23
2019-02-17T03:32:42.018Z,15.40
2019-02-17T03:35:10.424Z,14.70
2019-02-17T03:37:38.818Z,15.87
2019-02-17T03:40:08.998Z,15.18
2019-02-17T03:42:37.408Z,14.47
2019-02-17T03:45:08.848Z,15.10
2019-02-17T03:47:37.282Z,15.30
2019-02-17T03:50:06.831Z,15.67
2019-02-17T03:52:35.257Z,16.67
2019-02-17T03:55:03.654Z,15.33
2019-02-17T03:57:32.049Z,16.03
2019-02-17T04:00:00.492Z,15.63
2019-02-17T04:02:28.931Z,16.10
2019-02-17T04:04:57.322Z,15.97
2019-02-17T04:07:25.721Z,15.30
2019-02-17T04:09:54.558Z,16.37
2019-02-17T04:12:22.960Z,15.73
2019-02-17T04:14:51.436Z,15.67
2019-02-17T04:17:19.878Z,15.10
2019-02-17T04:19:48.327Z,15.47
2019-02-17T04:22:16.750Z,15.77
2019-02-17T04:24:45.204Z,16.00
2019-02-17T04:27:13.653Z,16.57
2019-02-17T04:29:42.056Z,15.63
2019-02-17T04:32:10.453Z,16.40
2019-02-17T04:34:38.892Z,15.40
2019-02-17T04:37:07.301Z,14.77
2019-02-17T04:39:35.703Z,14.97
2019-02-17T04:42:04.150Z,16.20
2019-02-17T04:44:32.548Z,15.77
2019-02-17T04:47:00.961Z,15.37
2019-02-17T04:49:29.401Z,15.63
2019-02-17T04:51:58.094Z,15.67
2019-02-17T04:54:26.494Z,16.80
2019-02-17T04:56:54.908Z,16.27
2019-02-17T04:59:23.355Z,15.83
2019-02-17T05:01:51.757Z,15.17
2019-02-17T05:04:20.150Z,15.93
2019-02-17T05:06:48.593Z,15.50
2019-02-17T05:09:16.994Z,15.57
2019-02-17T05:11:45.393Z,16.33
2019-02-17T05:14:13.861Z,15.53
2019-02-17T05:16:42.270Z,16.30
2019-02-17T05:19:10.670Z,16.43
2019-02-17T05:21:39.116Z,16.90
2019-02-17T05:24:07.514Z,16.17
2019-02-17T05:26:35.913Z,15.53
2019-02-17T05:29:04.354Z,16.13
2019-02-17T05:31:32.758Z,17.17
2019-02-17T05:34:01.173Z,16.10
2019-02-17T05:36:29.790Z,17.17
2019-02-17T05:38:58.181Z,16.30
2019-02-17T05:41:26.594Z,16.40
2019-02-17T05:43:55.213Z,16.10
2019-02-17T05:46:23.614Z,16.23
2019-02-17T05:48:52.009Z,17.37
2019-02-17T05:51:20.444Z,16.57
2019-02-17T05:53:48.841Z,17.73
2019-02-17T05:56:17.297Z,16.40
2019-02-17T05:58:45.692Z,17.97
2019-02-17T06:01:14.092Z,17.37
2019-02-17T06:04:09.434Z,17.03
2019-02-17T06:06:37.838Z,17.43
2019-02-17T06:09:06.244Z,16.70
2019-02-17T06:11:34.691Z,17.07
2019-02-17T06:14:03.089Z,16.77
2019-02-17T06:16:31.544Z,17.40
2019-02-17T06:18:59.934Z,17.90
2019-02-17T06:21:28.333Z,16.97
2019-02-17T06:23:56.782Z,17.07
2019-02-17T06:26:25.181Z,17.70
2019-02-17T06:28:53.583Z,17.80
2019-02-17T06:31:22.036Z,17.57
2019-02-17T06:33:50.434Z,16.93
2019-02-17T06:36:18.843Z,18.07
2019-02-17T06:38:47.288Z,17.20
2019-02-17T06:41:15.693Z,17.77
2019-02-17T06:43:44.089Z,16.97
2019-02-17T06:46:14.153Z,17.00
2019-02-17T06:48:42.558Z,17.90
2019-02-17T06:51:10.963Z,17.80
2019-02-17T06:53:39.672Z,17.20
2019-02-17T06:56:18.678Z,17.17
2019-02-17T06:58:47.425Z,16.33
2019-02-17T07:01:24.368Z,16.50
2019-02-17T07:03:45.953Z,17.13
2019-02-17T07:06:31.150Z,18.30
2019-02-17T07:08:59.757Z,17.73
2019-02-17T07:11:28.166Z,17.83
2019-02-17T07:13:56.571Z,16.13
2019-02-17T07:16:25.021Z,17.53
2019-02-17T07:18:53.431Z,17.03
2019-02-17T07:21:21.861Z,16.40
2019-02-17T07:23:50.391Z,17.17
2019-02-17T07:26:18.789Z,16.83
2019-02-17T07:28:47.189Z,16.73
2019-02-17T07:31:15.585Z,16.80
2019-02-17T07:33:44.082Z,17.10
2019-02-17T07:36:12.469Z,16.70
2019-02-17T07:38:40.881Z,17.23
2019-02-17T07:41:09.449Z,16.47
2019-02-17T07:43:37.867Z,16.50
2019-02-17T07:46:06.262Z,17.47
2019-02-17T07:48:34.709Z,16.87
2019-02-17T07:51:03.102Z,16.03
2019-02-17T07:53:31.696Z,17.17
2019-02-17T07:56:00.099Z,16.30
2019-02-17T07:58:28.502Z,16.27
2019-02-17T08:00:56.934Z,16.97
2019-02-17T08:03:25.357Z,15.47
2019-02-17T08:05:53.730Z,16.30
2019-02-17T08:08:22.577Z,16.87
2019-02-17T08:10:50.983Z,16.17
2019-02-17T08:13:19.385Z,17.53
2019-02-17T08:15:47.855Z,16.87
2019-02-17T08:18:16.256Z,16.13
2019-02-17T08:20:45.139Z,16.40
2019-02-17T08:23:13.588Z,17.07
2019-02-17T08:25:42.121Z,16.50
2019-02-17T08:28:10.517Z,16.43
2019-02-17T08:30:38.926Z,15.93
2019-02-17T08:33:07.367Z,15.80
2019-02-17T08:35:35.837Z,16.80
2019-02-17T08:38:04.230Z,17.10
2019-02-17T08:40:32.637Z,16.63
2019-02-17T08:43:01.092Z,17.00
2019-02-17T08:45:29.490Z,16.53
2019-02-17T08:47:57.896Z,17.40
2019-02-17T08:50:26.335Z,17.33
2019-02-17T08:52:54.741Z,17.23
2019-02-17T08:55:23.146Z,17.53
2019-02-17T08:57:51.599Z,17.17
2019-02-17T09:00:20.012Z,17.50
2019-02-17T09:02:48.417Z,17.10
2019-02-17T09:05:16.867Z,16.40
2019-02-17T09:07:45.263Z,16.07
2019-02-17T09:10:13.748Z,16.33
2019-02-17T09:12:42.187Z,15.93
2019-02-17T09:15:11.859Z,15.07
2019-02-17T09:17:40.246Z,15.43
2019-02-17T09:20:10.743Z,15.00
2019-02-17T09:22:39.142Z,15.77
2019-02-17T09:25:09.929Z,15.53
2019-02-17T09:27:38.335Z,15.17
2019-02-17T09:30:10.528Z,16.35
2019-02-17T09:32:38.970Z,15.57
2019-02-17T09:35:07.398Z,15.97
2019-02-17T09:37:35.861Z,15.17
2019-02-17T09:40:06.253Z,14.63
2019-02-17T09:42:34.655Z,15.43
2019-02-17T09:45:04.556Z,15.37
2019-02-17T09:47:32.992Z,15.03
2019-02-17T09:50:01.398Z,14.83
2019-02-17T09:52:29.812Z,14.90
2019-02-17T09:54:58.250Z,14.60
2019-02-17T09:57:27.550Z,15.23
2019-02-17T09:59:55.999Z,14.70
2019-02-17T10:02:26.860Z,14.63
2019-02-17T10:04:54.589Z,14.97
2019-02-17T10:07:23.048Z,14.20
2019-02-17T10:09:51.451Z,13.97
2019-02-17T10:12:19.901Z,12.70
2019-02-17T10:14:48.310Z,13.40
2019-02-17T10:17:16.718Z,13.43
2019-02-17T10:19:45.170Z,13.90
2019-02-17T10:22:13.577Z,12.70
2019-02-17T10:24:41.986Z,12.60
2019-02-17T10:27:10.436Z,13.23
2019-02-17T10:29:38.918Z,13.00
2019-02-17T10:32:07.369Z,13.37
2019-02-17T10:34:36.074Z,12.37
2019-02-17T10:37:04.477Z,12.90
2019-02-17T10:39:32.877Z,12.97
2019-02-17T10:42:01.331Z,12.67
2019-02-17T10:44:29.967Z,12.33
2019-02-17T10:46:58.377Z,13.63
2019-02-17T10:49:26.830Z,13.13
2019-02-17T10:51:55.230Z,12.37
2019-02-17T10:54:23.653Z,13.03
2019-02-17T10:56:52.113Z,12.87
2019-02-17T10:59:20.517Z,12.23
2019-02-17T11:01:49.100Z,12.10
2019-02-17T11:04:17.508Z,11.73
2019-02-17T11:06:45.921Z,11.40
2019-02-17T11:09:16.133Z,11.63
2019-02-17T11:11:44.605Z,12.33
2019-02-17T11:14:13.036Z,11.50
2019-02-17T11:16:41.475Z,11.83
2019-02-17T11:19:10.063Z,11.27
2019-02-17T11:21:38.465Z,11.37
2019-02-17T11:24:06.870Z,11.60
2019-02-17T11:26:35.384Z,11.30
2019-02-17T11:29:03.858Z,10.83
2019-02-17T11:31:32.265Z,11.13
2019-02-17T11:34:00.830Z,10.83
2019-02-17T11:36:29.259Z,11.40
2019-02-17T11:38:57.707Z,11.80
2019-02-17T11:41:27.057Z,11.57
2019-02-17T11:43:55.493Z,11.47
2019-02-17T11:46:23.898Z,11.57
2019-02-17T11:48:52.297Z,11.37
2019-02-17T11:51:20.766Z,11.07
2019-02-17T11:53:49.175Z,11.73
2019-02-17T11:56:17.587Z,11.63
2019-02-17T11:58:46.046Z,11.77
2019-02-17T12:01:14.454Z,12.07
2019-02-17T12:03:42.858Z,11.07
2019-02-17T12:06:11.301Z,11.43
2019-02-17T12:08:42.788Z,11.33
2019-02-17T12:11:11.202Z,11.13
2019-02-17T12:13:39.653Z,11.07
2019-02-17T12:16:08.128Z,11.10
2019-02-17T12:18:36.529Z,11.20
2019-02-17T12:21:06.623Z,11.83
2019-02-17T12:23:42.721Z,11.70
2019-02-17T12:26:13.058Z,11.07
2019-02-17T12:28:43.102Z,10.27
2019-02-17T12:31:13.414Z,10.60
2019-02-17T12:33:41.861Z,10.67
2019-02-17T12:36:10.269Z,9.93
2019-02-17T12:38:38.674Z,10.77
2019-02-17T12:41:07.397Z,10.63
2019-02-17T12:43:35.796Z,11.50
2019-02-17T12:46:04.200Z,10.77
2019-02-17T12:48:32.670Z,11.03
2019-02-17T12:51:01.078Z,10.50
2019-02-17T12:53:29.530Z,10.30
2019-02-17T12:55:57.933Z,10.03
2019-02-17T12:58:29.962Z,10.23
2019-02-17T13:00:56.665Z,10.63
2019-02-17T13:03:28.555Z,10.40
2019-02-17T13:05:55.253Z,10.53
2019-02-17T13:08:23.659Z,10.63
2019-02-17T13:10:52.142Z,10.70
2019-02-17T13:13:20.565Z,10.53
2019-02-17T13:15:48.968Z,10.47
2019-02-17T13:18:17.361Z,10.33
2019-02-17T13:20:46.035Z,10.10
2019-02-17T13:23:14.397Z,9.90
2019-02-17T13:25:42.797Z,9.90
2019-02-17T13:28:11.233Z,9.63
2019-02-17T13:30:39.652Z,10.17
2019-02-17T13:33:08.081Z,10.23
2019-02-17T13:35:36.505Z,9.90
2019-02-17T13:38:04.909Z,10.43
2019-02-17T13:40:33.648Z,10.00
2019-02-17T13:43:02.048Z,10.17
2019-02-17T13:45:30.455Z,10.17
2019-02-17T13:47:58.907Z,10.10
2019-02-17T13:50:27.315Z,9.87
2019-02-17T13:52:55.750Z,9.77
2019-02-17T13:55:24.164Z,10.13
2019-02-17T13:57:52.617Z,10.07
2019-02-17T14:00:21.142Z,9.90
2019-02-17T14:02:49.542Z,9.67
2019-02-17T14:05:17.946Z,9.10
2019-02-17T14:07:46.386Z,9.47
2019-02-17T14:10:15.021Z,9.57
2019-02-17T14:12:43.429Z,9.10
2019-02-17T14:15:19.769Z,9.17
2019-02-17T14:17:48.191Z,8.63
2019-02-17T14:20:16.585Z,8.80
2019-02-17T14:22:45.027Z,8.87
2019-02-17T14:25:13.426Z,9.00
2019-02-17T14:27:41.872Z,9.00
2019-02-17T14:30:14.484Z,8.53
2019-02-17T14:32:42.917Z,9.00
2019-02-17T14:35:11.494Z,8.47
2019-02-17T14:37:40.012Z,8.87
2019-02-17T14:40:10.621Z,8.77
2019-02-17T14:42:39.103Z,9.00
2019-02-17T14:45:10.759Z,8.70
2019-02-17T14:47:39.148Z,8.03
2019-02-17T14:50:08.631Z,8.67
2019-02-17T14:52:37.067Z,8.10
2019-02-17T14:55:07.606Z,7.90
2019-02-17T14:57:36.045Z,7.77
2019-02-17T15:00:12.760Z,8.37
2019-02-17T15:02:41.516Z,8.30
2019-02-17T15:05:10.563Z,7.70
2019-02-17T15:07:38.966Z,7.87
2019-02-17T15:10:11.437Z,7.80
2019-02-17T15:12:39.845Z,7.17
2019-02-17T15:15:17.328Z,7.27
2019-02-17T15:17:45.736Z,7.70
2019-02-17T15:20:22.147Z,7.33
2019-02-17T15:22:50.553Z,7.50
2019-02-17T15:25:19.021Z,7.50
2019-02-17T15:27:47.459Z,7.70
2019-02-17T15:30:17.963Z,6.60
2019-02-17T15:32:46.571Z,6.80
2019-02-17T15:35:15.071Z,7.13
2019-02-17T15:37:43.517Z,6.80
2019-02-17T15:40:15.189Z,7.40
2019-02-17T15:42:43.664Z,7.20
2019-02-17T15:45:13.329Z,6.90
2019-02-17T15:47:41.798Z,7.17
2019-02-17T15:50:14.155Z,7.07
2019-02-17T15:52:42.594Z,6.63
2019-02-17T15:55:12.438Z,7.17
2019-02-17T15:57:40.859Z,6.73
2019-02-17T16:00:12.211Z,6.40
2019-02-17T16:02:40.630Z,6.33
2019-02-17T16:05:09.747Z,6.23
2019-02-17T16:07:38.245Z,6.90
2019-02-17T16:10:12.097Z,6.50
2019-02-17T16:12:40.505Z,6.10
2019-02-17T16:15:20.612Z,6.13
2019-02-17T16:17:49.013Z,6.23
2019-02-17T16:20:17.449Z,6.47
2019-02-17T16:22:45.840Z,5.80
2019-02-17T16:25:14.238Z,6.03
2019-02-17T16:27:42.679Z,6.33
2019-02-17T16:30:17.070Z,5.73
2019-02-17T16:32:45.470Z,5.90
2019-02-17T16:35:13.922Z,5.80
2019-02-17T16:37:42.326Z,5.57
2019-02-17T16:40:17.340Z,5.87
2019-02-17T16:42:45.788Z,5.80
2019-02-17T16:45:14.792Z,5.77
2019-02-17T16:47:43.842Z,5.63
2019-02-17T16:50:23.061Z,6.10
2019-02-17T16:52:51.477Z,5.70
2019-02-17T16:55:19.867Z,5.77
2019-02-17T16:57:48.297Z,6.30
2019-02-17T17:00:23.027Z,6.27
2019-02-17T17:02:53.262Z,7.17
2019-02-17T17:05:22.593Z,5.90
2019-02-17T17:07:50.992Z,7.07
2019-02-17T17:10:19.573Z,6.67
2019-02-17T17:12:48.066Z,6.20
2019-02-17T17:15:16.901Z,6.30
2019-02-17T17:17:45.511Z,7.00
2019-02-17T17:20:20.815Z,6.70
2019-02-17T17:22:49.209Z,6.93
2019-02-17T17:25:17.805Z,6.67
2019-02-17T17:27:46.190Z,6.40
2019-02-17T17:30:16.715Z,6.67
2019-02-17T17:32:45.214Z,6.60
2019-02-17T17:35:13.756Z,6.27
2019-02-17T17:37:42.586Z,7.10
2019-02-17T17:40:13.093Z,6.37
2019-02-17T17:42:41.485Z,6.97
2019-02-17T17:45:17.425Z,6.87
2019-02-17T17:47:45.820Z,7.17
2019-02-17T17:50:15.359Z,7.70
2019-02-17T17:52:43.940Z,7.17
2019-02-17T17:55:13.477Z,7.20
2019-02-17T17:57:41.880Z,7.20
2019-02-17T18:00:16.860Z,7.93
2019-02-17T18:02:45.332Z,8.30
2019-02-17T18:05:14.061Z,7.80
2019-02-17T18:07:42.656Z,7.70
2019-02-17T18:10:13.106Z,7.47
2019-02-17T18:12:41.515Z,7.73
2019-02-17T18:15:14.888Z,7.87
2019-02-17T18:17:53.429Z,8.07
2019-02-17T18:20:13.884Z,8.23
2019-02-17T18:22:42.360Z,7.80
2019-02-17T18:25:15.191Z,8.67
2019-02-17T18:27:43.587Z,7.67
2019-02-17T18:30:18.046Z,7.37
2019-02-17T18:32:46.542Z,8.40
2019-02-17T18:35:19.970Z,7.90
2019-02-17T18:37:45.176Z,8.17
2019-02-17T18:40:17.657Z,8.53
2019-02-17T18:42:46.132Z,8.50
2019-02-17T18:45:15.484Z,8.80
2019-02-17T18:47:43.914Z,10.37
2019-02-17T18:50:14.675Z,9.30
2019-02-17T18:52:43.079Z,9.70
2019-02-17T18:55:12.779Z,9.47
2019-02-17T18:57:49.491Z,9.77
2019-02-17T19:00:17.150Z,9.67
2019-02-17T19:02:45.547Z,9.40
2019-02-17T19:05:14.083Z,8.80
2019-02-17T19:07:42.501Z,9.23
2019-02-17T19:10:12.617Z,9.17
2019-02-17T19:12:41.159Z,9.03
2019-02-17T19:15:14.638Z,9.27
2019-02-17T19:17:43.206Z,9.47
2019-02-17T19:20:14.670Z,9.47
2019-02-17T19:22:43.081Z,9.30
2019-02-17T19:25:11.527Z,9.53
2019-02-17T19:27:40.098Z,9.10
2019-02-17T19:30:11.568Z,10.33
2019-02-17T19:32:39.965Z,9.43
2019-02-17T19:35:10.722Z,8.90
2019-02-17T19:37:39.169Z,9.30
2019-02-17T19:40:10.181Z,8.60
2019-02-17T19:42:38.599Z,9.30
2019-02-17T19:45:15.610Z,8.83
2019-02-17T19:47:43.988Z,8.97
2019-02-17T19:50:14.805Z,8.83
2019-02-17T19:52:43.314Z,9.67
2019-02-17T19:55:12.636Z,8.33
2019-02-17T19:57:41.108Z,8.53
2019-02-17T20:00:14.625Z,9.27
2019-02-17T20:03:02.562Z,9.03
2019-02-17T20:05:35.173Z,8.47
2019-02-17T20:08:03.009Z,9.93
2019-02-17T20:10:31.447Z,9.57
2019-02-17T20:12:59.878Z,9.13
2019-02-17T20:15:29.937Z,10.00
2019-02-17T20:17:58.320Z,10.10
2019-02-17T20:20:26.772Z,9.90
2019-02-17T20:22:55.223Z,9.10
2019-02-17T20:25:23.643Z,9.57
2019-02-17T20:27:52.055Z,10.23
2019-02-17T20:30:20.490Z,9.93
2019-02-17T20:32:48.930Z,10.37
2019-02-17T20:35:17.366Z,12.77
2019-02-17T20:37:45.795Z,12.13
2019-02-17T20:40:16.074Z,11.83
2019-02-17T20:42:44.478Z,11.77
2019-02-17T20:45:13.196Z,11.23
2019-02-17T20:47:41.623Z,10.43
2019-02-17T20:50:17.020Z,11.37
2019-02-17T20:52:45.437Z,10.87
2019-02-17T20:55:14.315Z,12.07
2019-02-17T20:57:42.708Z,11.73
2019-02-17T21:00:19.526Z,12.03
2019-02-17T21:02:47.957Z,12.57
2019-02-17T21:05:16.427Z,13.20
2019-02-17T21:07:44.825Z,11.57
2019-02-17T21:10:14.570Z,11.03
2019-02-17T21:12:43.005Z,11.77
2019-02-17T21:15:13.900Z,12.40
2019-02-17T21:17:42.291Z,12.03
2019-02-17T21:20:11.637Z,12.47
2019-02-17T21:22:40.070Z,10.23
2019-02-17T21:25:13.030Z,11.27
2019-02-17T21:27:41.471Z,11.30
2019-02-17T21:30:17.241Z,10.93
2019-02-17T21:32:45.922Z,11.63
2019-02-17T21:35:15.595Z,11.17
2019-02-17T21:37:44.034Z,10.97
2019-02-17T21:40:13.105Z,10.77
2019-02-17T21:42:41.558Z,10.73
2019-02-17T21:45:11.958Z,11.07
2019-02-17T21:47:40.559Z,12.30
2019-02-17T21:50:11.676Z,11.83
2019-02-17T21:52:41.891Z,10.77
2019-02-17T21:55:11.814Z,11.20
2019-02-17T21:57:40.236Z,10.43
2019-02-17T22:00:20.522Z,10.57
2019-02-17T22:02:49.003Z,11.00
2019-02-17T22:05:17.530Z,10.23
2019-02-17T22:07:45.990Z,9.53
2019-02-17T22:10:16.426Z,10.13
2019-02-17T22:12:44.890Z,10.10
2019-02-17T22:15:18.124Z,11.43
2019-02-17T22:17:46.552Z,10.80
2019-02-17T22:20:14.960Z,10.17
2019-02-17T22:22:43.374Z,10.50
2019-02-17T22:25:13.383Z,11.30
2019-02-17T22:27:41.817Z,12.77
2019-02-17T22:30:11.928Z,12.87
2019-02-17T22:32:40.393Z,11.10
2019-02-17T22:35:09.019Z,10.60
2019-02-17T22:37:37.412Z,11.23
2019-02-17T22:40:08.959Z,11.03
2019-02-17T22:42:37.375Z,11.00
2019-02-17T22:45:08.450Z,13.77
2019-02-17T22:47:36.924Z,11.77
2019-02-17T22:50:08.394Z,11.03
2019-02-17T22:52:36.814Z,10.40
2019-02-17T22:55:08.105Z,10.67
2019-02-17T22:57:36.508Z,10.07
2019-02-17T23:00:19.722Z,9.87
2019-02-17T23:02:48.128Z,10.47
2019-02-17T23:05:16.523Z,10.43
2019-02-17T23:07:45.047Z,10.00
2019-02-17T23:10:13.678Z,9.53
2019-02-17T23:12:42.074Z,10.07
2019-02-17T23:15:10.501Z,9.83
2019-02-17T23:17:38.949Z,11.70
2019-02-17T23:20:08.059Z,10.00
2019-02-17T23:22:36.729Z,10.40
2019-02-17T23:25:08.108Z,10.73
2019-02-17T23:27:36.513Z,10.13
2019-02-17T23:30:06.770Z,10.10
2019-02-17T23:32:35.204Z,9.77
2019-02-17T23:35:03.828Z,10.27
2019-02-17T23:37:32.235Z,10.23
2019-02-17T23:40:00.622Z,9.83
2019-02-17T23:42:29.219Z,9.47
2019-02-17T23:44:57.615Z,9.37
2019-02-17T23:47:26.022Z,9.97
2019-02-17T23:49:54.472Z,9.77
2019-02-17T23:52:22.865Z,10.33
2019-02-17T23:54:51.257Z,10.30
2019-02-17T23:57:19.704Z,10.17
2019-02-17T23:59:48.101Z,10.27
